createdAt,value
2019-05-02T00:01:09.775Z,76689.71
2019-05-02T00:03:40.759Z,76692.71
2019-05-02T00:06:07.432Z,76688.71
2019-05-02T00:08:33.186Z,76680.70
2019-05-02T00:10:59.118Z,76676.70
2019-05-02T00:13:25.164Z,76676.70
2019-05-02T00:15:51.524Z,76680.70
2019-05-02T00:18:17.572Z,76680.70
2019-05-02T00:20:43.623Z,76678.70
2019-05-02T00:23:09.673Z,76679.70
2019-05-02T00:25:35.638Z,76681.70
2019-05-02T00:28:01.594Z,76683.70
2019-05-02T00:30:29.933Z,76678.70
2019-05-02T00:32:58.301Z,76669.70
2019-05-02T00:35:23.424Z,76675.70
2019-05-02T00:37:49.370Z,76667.70
2019-05-02T00:40:15.319Z,76666.69
2019-05-02T00:42:41.368Z,76670.70
2019-05-02T00:45:07.622Z,76672.70
2019-05-02T00:47:47.622Z,76664.69
2019-05-02T00:50:13.135Z,76658.69
2019-05-02T00:52:39.184Z,76666.69
2019-05-02T00:55:05.335Z,76658.69
2019-05-02T00:57:31.384Z,76656.69
2019-05-02T00:59:57.843Z,76659.69
2019-05-02T01:02:35.917Z,76654.69
2019-05-02T01:05:03.311Z,76656.69
2019-05-02T01:07:27.888Z,76655.69
2019-05-02T01:09:54.144Z,76659.69
2019-05-02T01:12:26.505Z,76657.69
2019-05-02T01:14:48.187Z,76648.68
2019-05-02T01:17:14.544Z,76654.69
2019-05-02T01:19:40.593Z,76650.69
2019-05-02T01:22:10.422Z,76650.69
2019-05-02T01:24:39.872Z,76652.69
2019-05-02T01:27:06.321Z,76656.69
2019-05-02T01:29:34.151Z,76655.69
2019-05-02T01:32:04.547Z,76648.68
2019-05-02T01:34:32.438Z,76648.68
2019-05-02T01:37:03.271Z,76648.68
2019-05-02T01:39:29.333Z,76639.67
2019-05-02T01:41:55.383Z,76637.67
2019-05-02T01:44:21.741Z,76631.67
2019-05-02T01:46:48.096Z,76632.67
2019-05-02T01:49:16.937Z,76624.66
2019-05-02T01:51:47.079Z,76621.66
2019-05-02T01:54:09.946Z,76619.66
2019-05-02T01:56:37.664Z,76617.66
2019-05-02T01:59:03.681Z,76616.66
2019-05-02T02:01:29.591Z,76612.66
2019-05-02T02:03:55.583Z,76610.66
2019-05-02T02:06:21.641Z,76604.64
2019-05-02T02:08:47.702Z,76609.66
2019-05-02T02:11:13.755Z,76605.65
2019-05-02T02:13:39.825Z,76603.64
2019-05-02T02:16:05.946Z,76604.64
2019-05-02T02:18:34.077Z,76601.64
2019-05-02T02:21:04.912Z,76601.64
2019-05-02T02:23:32.855Z,76598.64
2019-05-02T02:26:00.748Z,76599.64
2019-05-02T02:28:31.992Z,76602.64
2019-05-02T02:31:04.845Z,76602.64
2019-05-02T02:33:26.101Z,76610.66
2019-05-02T02:35:52.595Z,76601.64
2019-05-02T02:38:18.612Z,76600.64
2019-05-02T02:40:44.661Z,76598.64
2019-05-02T02:43:32.480Z,76602.64
2019-05-02T02:45:44.586Z,76602.64
2019-05-02T02:48:10.606Z,76601.64
2019-05-02T02:50:42.838Z,76604.64
2019-05-02T02:53:04.311Z,76604.64
2019-05-02T02:55:30.331Z,76598.64
2019-05-02T02:57:58.594Z,76595.64
2019-05-02T03:00:24.017Z,76595.64
2019-05-02T03:02:50.187Z,76597.64
2019-05-02T03:05:18.896Z,76599.64
2019-05-02T03:07:43.829Z,76597.64
2019-05-02T03:10:09.855Z,76597.64
2019-05-02T03:12:41.396Z,76600.64
2019-05-02T03:15:21.101Z,76589.64
2019-05-02T03:17:43.993Z,76596.64
2019-05-02T03:20:09.979Z,76592.64
2019-05-02T03:22:41.959Z,76590.64
2019-05-02T03:25:03.915Z,76594.64
2019-05-02T03:27:37.134Z,76592.64
2019-05-02T03:29:57.551Z,76590.64
2019-05-02T03:32:33.018Z,76590.64
2019-05-02T03:34:53.507Z,76592.64
2019-05-02T03:37:18.957Z,76593.64
2019-05-02T03:39:49.802Z,76586.63
2019-05-02T03:42:12.688Z,76588.64
2019-05-02T03:44:38.636Z,76585.63
2019-05-02T03:47:05.005Z,76592.64
2019-05-02T03:49:31.155Z,76594.64
2019-05-02T03:52:02.781Z,76589.64
2019-05-02T03:54:27.973Z,76592.64
2019-05-02T03:56:53.916Z,76584.63
2019-05-02T03:59:19.863Z,76593.64
2019-05-02T04:01:45.912Z,76588.64
2019-05-02T04:04:14.022Z,76590.64
2019-05-02T04:06:39.648Z,76598.64
2019-05-02T04:09:06.006Z,76592.64
2019-05-02T04:11:38.343Z,76594.64
2019-05-02T04:13:59.581Z,76594.64
2019-05-02T04:16:26.201Z,76588.64
2019-05-02T04:18:56.106Z,76592.64
2019-05-02T04:21:24.401Z,76589.64
2019-05-02T04:23:47.953Z,76583.63
2019-05-02T04:26:14.558Z,76585.63
2019-05-02T04:28:45.617Z,76584.63
2019-05-02T04:31:08.586Z,76587.63
2019-05-02T04:33:36.537Z,76586.63
2019-05-02T04:36:13.600Z,76590.64
2019-05-02T04:38:41.718Z,76587.63
2019-05-02T04:40:59.142Z,76586.63
2019-05-02T04:43:28.582Z,76584.63
2019-05-02T04:45:57.453Z,76594.64
2019-05-02T04:48:20.671Z,76590.64
2019-05-02T04:50:48.236Z,76596.64
2019-05-02T04:53:14.363Z,76595.64
2019-05-02T04:55:40.413Z,76595.64
2019-05-02T04:58:08.383Z,76589.64
2019-05-02T05:00:34.072Z,76588.64
2019-05-02T05:03:00.405Z,76590.64
2019-05-02T05:05:31.019Z,76585.63
2019-05-02T05:07:54.096Z,76591.64
2019-05-02T05:10:19.970Z,76589.64
2019-05-02T05:12:47.889Z,76594.64
2019-05-02T05:15:33.752Z,76600.64
2019-05-02T05:17:41.446Z,76598.64
2019-05-02T05:20:14.146Z,76602.64
2019-05-02T05:22:36.470Z,76598.64
2019-05-02T05:25:07.503Z,76598.64
2019-05-02T05:27:33.652Z,76594.64
2019-05-02T05:30:08.457Z,76594.64
2019-05-02T05:32:28.179Z,76594.64
2019-05-02T05:34:54.505Z,76595.64
2019-05-02T05:37:20.531Z,76604.64
2019-05-02T05:39:48.780Z,76608.66
2019-05-02T05:42:14.486Z,76603.64
2019-05-02T05:44:40.433Z,76602.64
2019-05-02T05:47:07.360Z,76605.65
2019-05-02T05:49:33.456Z,76602.64
2019-05-02T05:52:02.961Z,76605.65
2019-05-02T05:54:28.295Z,76605.65
2019-05-02T05:56:54.991Z,76600.64
2019-05-02T05:59:22.299Z,76604.64
2019-05-02T06:01:51.534Z,76600.64
2019-05-02T06:04:19.467Z,76604.64
2019-05-02T06:06:44.726Z,76603.64
2019-05-02T06:09:13.606Z,76607.66
2019-05-02T06:11:38.314Z,76604.64
2019-05-02T06:14:04.341Z,76610.66
2019-05-02T06:16:30.652Z,76611.66
2019-05-02T06:18:58.646Z,76614.66
2019-05-02T06:21:24.508Z,76612.66
2019-05-02T06:23:50.694Z,76621.66
2019-05-02T06:26:16.577Z,76623.66
2019-05-02T06:28:43.259Z,76621.66
2019-05-02T06:31:09.403Z,76617.66
2019-05-02T06:33:35.431Z,76613.66
2019-05-02T06:36:02.505Z,76608.66
2019-05-02T06:38:28.661Z,76611.66
2019-05-02T06:40:54.716Z,76610.66
2019-05-02T06:43:20.783Z,76615.66
2019-05-02T06:45:46.853Z,76614.66
2019-05-02T06:48:16.878Z,76606.65
2019-05-02T06:50:40.769Z,76609.66
2019-05-02T06:53:09.747Z,76611.66
2019-05-02T06:55:36.581Z,76609.66
2019-05-02T06:58:05.735Z,76612.66
2019-05-02T07:00:38.415Z,76606.65
2019-05-02T07:02:57.832Z,76606.65
2019-05-02T07:05:27.228Z,76602.64
2019-05-02T07:07:51.902Z,76600.64
2019-05-02T07:10:20.049Z,76589.64
2019-05-02T07:12:46.160Z,76595.64
2019-05-02T07:15:33.525Z,76590.64
2019-05-02T07:18:05.420Z,76590.64
2019-05-02T07:20:29.967Z,76591.64
2019-05-02T07:22:56.248Z,76589.64
2019-05-02T07:25:22.303Z,76590.64
2019-05-02T07:27:48.357Z,76594.64
2019-05-02T07:30:15.636Z,76590.64
2019-05-02T07:32:41.709Z,76589.64
2019-05-02T07:35:07.693Z,76596.64
2019-05-02T07:37:33.707Z,76588.64
2019-05-02T07:39:59.600Z,76588.64
2019-05-02T07:42:25.502Z,76592.64
2019-05-02T07:44:51.380Z,76590.64
2019-05-02T07:47:17.396Z,76599.64
2019-05-02T07:49:43.344Z,76598.64
2019-05-02T07:52:09.300Z,76598.64
2019-05-02T07:54:35.352Z,76596.64
2019-05-02T07:57:02.432Z,76594.64
2019-05-02T07:59:28.738Z,76596.64
2019-05-02T08:01:54.738Z,76599.64
2019-05-02T08:04:20.789Z,76592.64
2019-05-02T08:06:46.769Z,76596.64
2019-05-02T08:09:12.888Z,76598.64
2019-05-02T08:11:38.938Z,76598.64
2019-05-02T08:14:04.995Z,76599.64
2019-05-02T08:16:30.942Z,76596.64
2019-05-02T08:19:01.299Z,76588.64
2019-05-02T08:21:32.636Z,76594.64
2019-05-02T08:24:02.071Z,76592.64
2019-05-02T08:26:24.005Z,76591.64
2019-05-02T08:28:53.157Z,76590.64
2019-05-02T08:31:20.923Z,76591.64
2019-05-02T08:33:46.876Z,76588.64
2019-05-02T08:36:12.860Z,76589.64
2019-05-02T08:38:38.871Z,76593.64
2019-05-02T08:41:04.830Z,76590.64
2019-05-02T08:43:30.683Z,76588.64
2019-05-02T08:45:56.939Z,76585.63
2019-05-02T08:48:23.302Z,76593.64
2019-05-02T08:50:49.362Z,76595.64
2019-05-02T08:53:19.861Z,76589.64
2019-05-02T08:55:45.349Z,76589.64
2019-05-02T08:58:14.595Z,76589.64
2019-05-02T09:00:39.560Z,76585.63
2019-05-02T09:03:05.673Z,76585.63
2019-05-02T09:05:31.817Z,76587.63
2019-05-02T09:07:59.736Z,76588.64
2019-05-02T09:10:25.694Z,76590.64
2019-05-02T09:12:52.081Z,76586.63
2019-05-02T09:15:18.111Z,76584.63
2019-05-02T09:17:51.668Z,76584.63
2019-05-02T09:20:18.787Z,76588.64
2019-05-02T09:22:41.781Z,76586.63
2019-05-02T09:25:07.632Z,76588.64
2019-05-02T09:27:34.091Z,76583.63
2019-05-02T09:30:02.346Z,76586.63
2019-05-02T09:32:28.545Z,76582.63
2019-05-02T09:34:56.750Z,76577.63
2019-05-02T09:37:22.759Z,76574.63
2019-05-02T09:39:49.153Z,76579.63
2019-05-02T09:42:17.393Z,76581.63
2019-05-02T09:44:43.299Z,76584.63
2019-05-02T09:47:12.839Z,76580.63
2019-05-02T09:49:41.709Z,76579.63
2019-05-02T09:52:06.575Z,76582.63
2019-05-02T09:54:36.946Z,76574.63
2019-05-02T09:57:00.337Z,76571.63
2019-05-02T09:59:33.143Z,76573.63
2019-05-02T10:01:59.548Z,76570.63
2019-05-02T10:04:25.573Z,76571.63
2019-05-02T10:06:52.486Z,76562.62
2019-05-02T10:09:23.287Z,76566.63
2019-05-02T10:11:46.593Z,76568.63
2019-05-02T10:14:12.946Z,76571.63
2019-05-02T10:16:38.993Z,76568.63
2019-05-02T10:19:09.557Z,76572.63
2019-05-02T10:21:32.732Z,76571.63
2019-05-02T10:24:00.850Z,76559.61
2019-05-02T10:26:26.584Z,76564.62
2019-05-02T10:28:53.337Z,76564.62
2019-05-02T10:31:21.691Z,76560.62
2019-05-02T10:33:47.276Z,76563.62
2019-05-02T10:36:19.531Z,76559.61
2019-05-02T10:38:42.743Z,76561.62
2019-05-02T10:41:08.630Z,76553.61
2019-05-02T10:43:34.508Z,76555.61
2019-05-02T10:46:02.349Z,76558.61
2019-05-02T10:48:33.155Z,76561.62
2019-05-02T10:51:17.936Z,76559.61
2019-05-02T10:53:47.161Z,76558.61
2019-05-02T10:56:11.849Z,76562.62
2019-05-02T10:58:37.835Z,76553.61
2019-05-02T11:01:03.885Z,76557.61
2019-05-02T11:03:38.164Z,76547.61
2019-05-02T11:06:07.694Z,76547.61
2019-05-02T11:08:36.763Z,76545.61
2019-05-02T11:11:02.350Z,76551.61
2019-05-02T11:13:42.641Z,76554.61
2019-05-02T11:16:13.202Z,76555.61
2019-05-02T11:18:59.735Z,76550.61
2019-05-02T11:21:25.781Z,76539.60
2019-05-02T11:23:52.581Z,76540.60
2019-05-02T11:26:21.536Z,76527.59
2019-05-02T11:28:46.421Z,76531.59
2019-05-02T11:31:12.488Z,76530.59
2019-05-02T11:33:38.552Z,76529.59
2019-05-02T11:36:04.579Z,76530.59
2019-05-02T11:38:30.848Z,76526.59
2019-05-02T11:40:57.095Z,76524.59
2019-05-02T11:43:23.456Z,76525.59
2019-05-02T11:45:55.831Z,76523.59
2019-05-02T11:48:19.728Z,76527.59
2019-05-02T11:50:44.992Z,76525.59
2019-05-02T11:53:24.897Z,76526.59
2019-05-02T11:55:41.313Z,76524.59
2019-05-02T11:58:08.331Z,76519.59
2019-05-02T12:00:34.502Z,76526.59
2019-05-02T12:03:02.418Z,76527.59
2019-05-02T12:05:35.715Z,76524.59
2019-05-02T12:08:06.773Z,76519.59
2019-05-02T12:10:34.827Z,76520.59
2019-05-02T12:12:58.697Z,76524.59
2019-05-02T12:15:24.945Z,76526.59
2019-05-02T12:17:51.674Z,76526.59
2019-05-02T12:20:18.091Z,76523.59
2019-05-02T12:22:44.141Z,76522.59
2019-05-02T12:25:12.465Z,76520.59
2019-05-02T12:27:37.829Z,76520.59
2019-05-02T12:30:04.290Z,76521.59
2019-05-02T12:32:30.304Z,76516.59
2019-05-02T12:34:56.349Z,76524.59
2019-05-02T12:37:22.282Z,76520.59
2019-05-02T12:39:48.440Z,76519.59
2019-05-02T12:42:14.657Z,76512.58
2019-05-02T12:44:42.488Z,76514.59
2019-05-02T12:47:08.687Z,76509.58
2019-05-02T12:49:34.733Z,76512.58
2019-05-02T12:52:01.769Z,76510.58
2019-05-02T12:54:32.411Z,76513.58
2019-05-02T12:57:02.051Z,76512.58
2019-05-02T12:59:32.086Z,76516.59
2019-05-02T13:01:59.757Z,76507.58
2019-05-02T13:04:26.211Z,76519.59
2019-05-02T13:06:53.142Z,76515.59
2019-05-02T13:09:19.336Z,76509.58
2019-05-02T13:11:52.860Z,76508.58
2019-05-02T13:14:22.393Z,76518.59
2019-05-02T13:16:53.433Z,76510.58
2019-05-02T13:19:16.331Z,76512.58
2019-05-02T13:22:02.245Z,76509.58
2019-05-02T13:24:33.323Z,76496.57
2019-05-02T13:27:01.037Z,76493.56
2019-05-02T13:29:27.073Z,76494.56
2019-05-02T13:31:58.416Z,76490.56
2019-05-02T13:34:29.223Z,76488.56
2019-05-02T13:36:57.834Z,76482.56
2019-05-02T13:39:25.532Z,76482.56
2019-05-02T13:41:52.187Z,76485.56
2019-05-02T13:44:29.413Z,76481.56
2019-05-02T13:46:55.865Z,76484.56
2019-05-02T13:49:22.072Z,76482.56
2019-05-02T13:51:48.282Z,76481.56
2019-05-02T13:54:14.347Z,76481.56
2019-05-02T13:56:52.784Z,76482.56
2019-05-02T13:59:21.861Z,76473.55
2019-05-02T14:01:47.492Z,76476.55
2019-05-02T14:04:14.949Z,76477.55
2019-05-02T14:06:42.107Z,76474.55
2019-05-02T14:09:18.400Z,76470.55
2019-05-02T14:11:49.580Z,76464.55
2019-05-02T14:14:15.629Z,76466.55
2019-05-02T14:16:42.053Z,76463.55
2019-05-02T14:19:08.034Z,76461.55
2019-05-02T14:21:34.086Z,76457.55
2019-05-02T14:24:01.730Z,76451.54
2019-05-02T14:26:30.548Z,76444.53
2019-05-02T14:28:55.821Z,76438.53
2019-05-02T14:31:21.870Z,76442.53
2019-05-02T14:34:06.449Z,76434.53
2019-05-02T14:36:32.611Z,76435.53
2019-05-02T14:38:58.971Z,76432.53
2019-05-02T14:41:30.079Z,76429.52
2019-05-02T14:43:55.584Z,76427.52
2019-05-02T14:46:22.289Z,76428.52
2019-05-02T14:48:48.514Z,76433.53
2019-05-02T14:51:16.702Z,76425.52
2019-05-02T14:53:43.009Z,76429.52
2019-05-02T14:56:12.497Z,76426.52
2019-05-02T14:58:39.144Z,76432.53
2019-05-02T15:01:05.553Z,76426.52
2019-05-02T15:03:32.479Z,76423.52
2019-05-02T15:06:04.064Z,76424.52
2019-05-02T15:08:29.274Z,76422.52
2019-05-02T15:10:56.681Z,76420.52
2019-05-02T15:13:23.005Z,76413.52
2019-05-02T15:15:49.258Z,76412.52
2019-05-02T15:18:17.525Z,76414.52
2019-05-02T15:20:42.965Z,76416.52
2019-05-02T15:23:14.474Z,76415.52
2019-05-02T15:25:39.562Z,76418.52
2019-05-02T15:28:07.756Z,76423.52
2019-05-02T15:30:37.259Z,76419.52
2019-05-02T15:33:04.070Z,76416.52
2019-05-02T15:35:37.708Z,76420.52
2019-05-02T15:38:06.695Z,76420.52
2019-05-02T15:43:04.510Z,76419.52
2019-05-02T15:45:24.941Z,76423.52
2019-05-02T15:47:52.596Z,76422.52
2019-05-02T15:50:22.017Z,76425.52
2019-05-02T15:53:09.693Z,76422.52
2019-05-02T15:55:32.413Z,76426.52
2019-05-02T15:57:59.109Z,76418.52
2019-05-02T16:00:27.081Z,76418.52
2019-05-02T16:02:56.222Z,76414.52
2019-05-02T16:05:22.200Z,76413.52
2019-05-02T16:07:48.934Z,76410.52
2019-05-02T16:10:14.988Z,76402.50
2019-05-02T16:12:42.707Z,76400.50
2019-05-02T16:15:13.587Z,76397.50
2019-05-02T16:17:36.935Z,76392.50
2019-05-02T16:20:10.568Z,76383.49
2019-05-02T16:22:38.302Z,76382.49
2019-05-02T16:25:03.997Z,76373.48
2019-05-02T16:27:44.373Z,76376.48
2019-05-02T16:30:12.813Z,76374.48
2019-05-02T16:32:42.048Z,76370.48
2019-05-02T16:35:13.566Z,76372.48
2019-05-02T16:37:35.888Z,76374.48
2019-05-02T16:40:02.532Z,76376.48
2019-05-02T16:42:28.807Z,76375.48
2019-05-02T16:44:55.023Z,76374.48
2019-05-02T16:47:28.254Z,76374.48
2019-05-02T16:49:56.412Z,76367.48
2019-05-02T16:52:22.343Z,76368.48
2019-05-02T16:54:48.302Z,76365.48
2019-05-02T16:57:17.428Z,76362.48
2019-05-02T16:59:42.584Z,76360.48
2019-05-02T17:02:09.098Z,76356.48
2019-05-02T17:04:35.203Z,76359.48
2019-05-02T17:07:05.762Z,76361.48
2019-05-02T17:09:52.053Z,76364.48
2019-05-02T17:12:18.246Z,76362.48
2019-05-02T17:14:51.526Z,76362.48
2019-05-02T17:17:13.934Z,76362.48
2019-05-02T17:19:40.089Z,76357.48
2019-05-02T17:22:06.446Z,76357.48
2019-05-02T17:24:32.524Z,76356.48
2019-05-02T17:26:59.127Z,76354.47
2019-05-02T17:29:25.200Z,76358.48
2019-05-02T17:31:57.337Z,76358.48
2019-05-02T17:34:23.050Z,76359.48
2019-05-02T17:36:47.103Z,76356.48
2019-05-02T17:39:13.250Z,76356.48
2019-05-02T17:41:44.006Z,76356.48
2019-05-02T17:44:07.101Z,76350.47
2019-05-02T17:46:33.466Z,76347.47
2019-05-02T17:48:59.384Z,76348.47
2019-05-02T17:51:33.999Z,76347.47
2019-05-02T17:54:00.559Z,76353.47
2019-05-02T17:56:26.434Z,76352.47
2019-05-02T17:58:54.209Z,76354.47
2019-05-02T18:01:34.885Z,76352.47
2019-05-02T18:03:59.203Z,76351.47
2019-05-02T18:06:32.931Z,76350.47
2019-05-02T18:08:55.255Z,76350.47
2019-05-02T18:11:22.304Z,76348.47
2019-05-02T18:13:48.305Z,76345.47
2019-05-02T18:16:16.603Z,76342.47
2019-05-02T18:18:43.733Z,76352.47
2019-05-02T18:21:09.537Z,76347.47
2019-05-02T18:23:35.429Z,76347.47
2019-05-02T18:26:02.736Z,76348.47
2019-05-02T18:28:29.221Z,76347.47
2019-05-02T18:30:57.089Z,76352.47
2019-05-02T18:33:22.889Z,76348.47
2019-05-02T18:35:49.269Z,76350.47
2019-05-02T18:38:15.795Z,76346.47
2019-05-02T18:40:43.388Z,76345.47
2019-05-02T18:43:09.368Z,76343.47
2019-05-02T18:45:35.250Z,76347.47
2019-05-02T18:48:05.189Z,76343.47
2019-05-02T18:50:29.171Z,76346.47
2019-05-02T18:52:55.410Z,76353.47
2019-05-02T18:55:23.223Z,76355.48
2019-05-02T18:57:49.366Z,76355.48
2019-05-02T19:00:15.647Z,76355.48
2019-05-02T19:02:42.472Z,76358.48
2019-05-02T19:05:13.485Z,76358.48
2019-05-02T19:07:36.079Z,76354.47
2019-05-02T19:10:07.144Z,76350.47
2019-05-02T19:12:32.829Z,76345.47
2019-05-02T19:15:05.388Z,76346.47
2019-05-02T19:17:26.477Z,76344.47
2019-05-02T19:19:52.714Z,76346.47
2019-05-02T19:22:18.635Z,76347.47
2019-05-02T19:24:44.494Z,76338.47
2019-05-02T19:27:12.807Z,76335.46
2019-05-02T19:29:39.582Z,76336.46
2019-05-02T19:32:06.267Z,76334.46
2019-05-02T19:34:32.474Z,76334.46
2019-05-02T19:37:02.863Z,76335.46
2019-05-02T19:39:26.589Z,76330.46
2019-05-02T19:41:52.907Z,76326.45
2019-05-02T19:44:21.535Z,76329.45
2019-05-02T19:46:46.444Z,76328.45
2019-05-02T19:49:15.966Z,76327.45
2019-05-02T19:51:40.070Z,76328.45
2019-05-02T19:54:07.145Z,76325.45
2019-05-02T19:56:43.135Z,76320.45
2019-05-02T19:59:02.711Z,76321.45
2019-05-02T20:01:28.821Z,76325.45
2019-05-02T20:03:56.776Z,76318.45
2019-05-02T20:06:22.488Z,76325.45
2019-05-02T20:08:48.566Z,76325.45
2019-05-02T20:11:14.560Z,76321.45
2019-05-02T20:13:40.859Z,76321.45
2019-05-02T20:16:22.453Z,76322.45
2019-05-02T20:18:48.525Z,76320.45
2019-05-02T20:21:24.237Z,76321.45
2019-05-02T20:23:47.726Z,76319.45
2019-05-02T20:26:15.394Z,76318.45
2019-05-02T20:28:42.239Z,76317.45
2019-05-02T20:31:08.424Z,76319.45
2019-05-02T20:33:34.487Z,76321.45
2019-05-02T20:36:01.816Z,76318.45
2019-05-02T20:38:32.472Z,76317.45
2019-05-02T20:40:58.588Z,76326.45
2019-05-02T20:43:24.950Z,76324.45
2019-05-02T20:45:52.583Z,76322.45
2019-05-02T20:48:18.725Z,76330.46
2019-05-02T20:50:44.790Z,76332.46
2019-05-02T20:53:12.793Z,76331.46
2019-05-02T20:55:39.103Z,76328.45
2019-05-02T20:58:05.052Z,76338.47
2019-05-02T21:00:32.177Z,76332.46
2019-05-02T21:03:02.677Z,76332.46
2019-05-02T21:05:39.807Z,76339.47
2019-05-02T21:08:10.459Z,76338.47
2019-05-02T21:10:38.368Z,76338.47
2019-05-02T21:13:04.840Z,76340.47
2019-05-02T21:15:32.385Z,76340.47
2019-05-02T21:18:02.280Z,76342.47
2019-05-02T21:20:29.403Z,76337.47
2019-05-02T21:22:55.447Z,76338.47
2019-05-02T21:25:23.222Z,76344.47
2019-05-02T21:27:49.185Z,76340.47
2019-05-02T21:30:17.082Z,76341.47
2019-05-02T21:32:43.131Z,76345.47
2019-05-02T21:35:09.488Z,76354.47
2019-05-02T21:37:35.541Z,76355.48
2019-05-02T21:40:02.762Z,76358.48
2019-05-02T21:42:28.976Z,76357.48
2019-05-02T21:44:55.017Z,76358.48
2019-05-02T21:47:22.527Z,76364.48
2019-05-02T21:49:52.384Z,76372.48
2019-05-02T21:52:22.918Z,76372.48
2019-05-02T21:54:52.182Z,76369.48
2019-05-02T21:57:19.434Z,76373.48
2019-05-02T21:59:45.489Z,76371.48
2019-05-02T22:02:12.680Z,76372.48
2019-05-02T22:04:38.747Z,76376.48
2019-05-02T22:07:04.695Z,76375.48
2019-05-02T22:09:32.197Z,76374.48
2019-05-02T22:12:01.035Z,76379.48
2019-05-02T22:14:26.907Z,76381.49
2019-05-02T22:16:53.167Z,76376.48
2019-05-02T22:19:19.210Z,76382.49
2019-05-02T22:21:45.174Z,76376.48
2019-05-02T22:24:12.347Z,76378.48
2019-05-02T22:26:38.825Z,76385.49
2019-05-02T22:29:04.880Z,76393.50
2019-05-02T22:31:32.345Z,76390.50
2019-05-02T22:34:02.159Z,76397.50
2019-05-02T22:36:32.440Z,76406.51
2019-05-02T22:39:01.967Z,76402.50
2019-05-02T22:41:29.158Z,76400.50
2019-05-02T22:43:55.466Z,76402.50
2019-05-02T22:46:42.890Z,76407.51
2019-05-02T22:49:08.500Z,76410.52
2019-05-02T22:51:34.561Z,76413.52
2019-05-02T22:54:02.848Z,76407.51
2019-05-02T22:56:31.691Z,76412.52
2019-05-02T22:58:57.960Z,76410.52
2019-05-02T23:01:24.013Z,76414.52
2019-05-02T23:03:50.060Z,76409.51
2019-05-02T23:06:16.451Z,76406.51
2019-05-02T23:08:43.503Z,76420.52
2019-05-02T23:11:09.659Z,76413.52
2019-05-02T23:13:36.016Z,76413.52
2019-05-02T23:16:02.894Z,76408.51
2019-05-02T23:18:29.049Z,76407.51
2019-05-02T23:20:55.411Z,76410.52
2019-05-02T23:23:21.575Z,76405.51
2019-05-02T23:26:06.051Z,76404.51
2019-05-02T23:28:33.942Z,76414.52
2019-05-02T23:30:59.875Z,76414.52
2019-05-02T23:33:29.852Z,76417.52
2019-05-02T23:35:55.902Z,76409.51
2019-05-02T23:38:21.965Z,76404.51
2019-05-02T23:40:48.335Z,76418.52
2019-05-02T23:43:14.388Z,76427.52
2019-05-02T23:45:42.182Z,76432.53
2019-05-02T23:48:08.533Z,76426.52
2019-05-02T23:50:34.588Z,76427.52
2019-05-02T23:53:02.298Z,76430.53
2019-05-02T23:55:32.227Z,76436.53
2019-05-02T23:58:02.893Z,76432.53
